• Join FlightAware (Why Join?)
  • Login
  • US Flag 
08:06PM EDT


 

Airport Tracker/Info


-or-


 

Live Flight TrackerFlight Track Log ✈ AVN31 ✈ 26-Sep-2013 ✈ YMML / MEL - NVVV / VLI

Flight Track Log - Related Links

Times and Time Zones

All times are in EDT time to prevent confusion due to time zone crossing. See the AVN31 flight status page for this flight to view local times or setup timezone preferences in your user account.

Time Position Orientation Groundspeed Altitude Reporting Facility
EDT Latitude Longitude Course Direction KTS MPH feet Rate Location/Type
08:05AM -37.5912 144.8229 171° South 3,900  Level Aus ATC (Calculated)
08:05AM -37.6470 144.8340 352° North 172 198 1,000 -4,020 Descending FlightAware
08:06AM -37.6240 144.8290 350° North 186 214 1,900 1,500 Climbing FlightAware
08:06AM -37.6060 144.8260 352° North 205 236 2,200 1,080 Climbing FlightAware
08:07AM -37.5680 144.8350 11° North 256 295 2,900 1,020 Climbing FlightAware
08:07AM -37.5460 144.8490 27° Northeast 285 328 3,200 900 Climbing FlightAware
08:07AM -37.5210 144.8650 27° Northeast 311 358 3,500 1,380 Climbing FlightAware
08:08AM -37.4940 144.8810 25° Northeast 326 375 4,100 1,680 Climbing FlightAware
08:08AM -37.4600 144.9020 26° Northeast 339 390 4,800 1,320 Climbing FlightAware
08:08AM -37.4450 144.9110 25° Northeast 340 391 4,900 180 Climbing FlightAware
08:09AM -37.4190 144.9330 34° Northeast 338 389 4,900 600 Level FlightAware
08:09AM -37.3940 144.9560 36° Northeast 338 389 5,300 1,560 Climbing FlightAware
08:09AM -37.3620 144.9850 36° Northeast 345 397 6,100 1,860 Climbing FlightAware
08:10AM -37.3360 145.0090 36° Northeast 355 409 6,700 1,920 Climbing FlightAware
08:10AM -37.3090 145.0340 36° Northeast 363 418 7,400 2,400 Climbing FlightAware
08:10AM -37.2890 145.0530 37° Northeast 362 417 8,100 2,040 Climbing FlightAware
08:11AM -37.2610 145.0780 35° Northeast 371 427 8,600 1,440 Climbing FlightAware
08:11AM -37.2320 145.1040 36° Northeast 385 443 9,100 1,440 Climbing FlightAware
08:11AM -37.2260 145.1100 39° Northeast 388 447 9,200 1,620 Climbing FlightAware
08:12AM -37.1450 145.1840 39° Northeast 408 470 10,800 1,860 Climbing FlightAware
08:12AM -37.1280 145.1992 39° Northeast 407 468 11,200 1,860 Climbing Aus ATC (RADAR)
08:13AM -37.0870 145.2370 36° Northeast 421 484 11,900 1,920 Climbing FlightAware
08:13AM -37.0276 145.2966 36° Northeast 429 494 13,300 1,920 Climbing Aus ATC (RADAR)
08:13AM -37.0360 145.2890 36° Northeast 431 496 13,100 2,220 Descending FlightAware
08:14AM -36.9736 145.3528 36° Northeast 435 501 14,600 2,340 Climbing Aus ATC (RADAR)
08:14AM -36.9730 145.3540 36° Northeast 438 504 14,600 2,040 Level FlightAware
08:15AM -36.9150 145.4140 36° Northeast 446 513 15,900 2,400 Climbing FlightAware
08:15AM -36.9102 145.4176 36° Northeast 445 512 16,100 1,860 Climbing Aus ATC (RADAR)
08:15AM -36.8590 145.4710 39° Northeast 455 524 17,000 1,800 Climbing FlightAware
08:16AM -36.8100 145.5220 40° Northeast 461 531 18,000 2,100 Climbing FlightAware
08:16AM -36.7549 145.5770 40° Northeast 465 535 19,200 1,980 Climbing Aus ATC (RADAR)
08:16AM -36.7360 145.5980 40° Northeast 468 539 19,500 1,500 Climbing FlightAware
08:17AM -36.6780 145.6570 39° Northeast 477 549 20,400 1,440 Climbing FlightAware
08:18AM -36.6170 145.7190 39° Northeast 488 562 21,200 1,500 Climbing FlightAware
08:18AM -36.5530 145.7840 39° Northeast 495 570 22,200 1,500 Climbing FlightAware
08:19AM -36.4910 145.8470 39° Northeast 503 579 23,000 1,320 Climbing FlightAware
08:19AM -36.4300 145.9090 39° Northeast 509 586 23,800 1,260 Climbing FlightAware
08:20AM -36.3630 145.9770 39° Northeast 516 594 24,500 1,200 Climbing FlightAware
08:20AM -36.2980 146.0430 39° Northeast 522 601 25,200 1,260 Climbing FlightAware
08:21AM -36.2330 146.1080 39° Northeast 526 605 26,000 1,260 Climbing FlightAware
08:22AM -36.1680 146.1730 39° Northeast 528 608 26,700 1,620 Climbing FlightAware
08:22AM -36.1610 146.1810 39° Northeast 528 608 27,000 1,500 Climbing Aus ATC (RADAR)
08:22AM -36.0990 146.2420 39° Northeast 528 608 27,600 1,320 Climbing FlightAware
08:22AM -36.0943 146.2466 39° Northeast 526 605 27,800 1,200 Climbing Aus ATC (RADAR)
08:23AM -36.0320 146.3090 39° Northeast 530 610 28,300 1,080 Climbing FlightAware
08:23AM -35.9680 146.3730 39° Northeast 530 610 29,100 1,320 Climbing FlightAware
08:24AM -35.9010 146.4400 39° Northeast 528 608 29,900 1,260 Climbing FlightAware
08:25AM -35.8310 146.5100 39° Northeast 521 600 30,600 1,140 Climbing FlightAware
08:25AM -35.7660 146.5740 39° Northeast 520 598 31,300 960 Climbing FlightAware
08:26AM -35.7170 146.6230 39° Northeast 522 601 31,700 840 Climbing FlightAware
08:26AM -35.6320 146.7060 38° Northeast 532 612 32,300 900 Climbing FlightAware
08:27AM -35.5424 146.7955 38° Northeast 534 615 33,000 660 Climbing Aus ATC (RADAR)
08:27AM -35.5500 146.7880 38° Northeast 535 616 32,800 480 Descending FlightAware
08:28AM -35.4770 146.8600 39° Northeast 540 621 33,300 780 Climbing FlightAware
08:28AM -35.4180 146.9170 38° Northeast 540 621 33,700 840 Climbing FlightAware
08:29AM -35.3400 146.9930 38° Northeast 539 620 34,300 1,080 Climbing FlightAware
08:29AM -35.2830 147.0490 38° Northeast 531 611 35,000 1,680 Climbing FlightAware
08:29AM -35.2704 147.0617 38° Northeast 532 612 35,300 300 Climbing Aus ATC (RADAR)
08:30AM -35.2131 147.1171 38° Northeast 526 605 35,200 -600 Descending Aus ATC (RADAR)
08:30AM -35.2150 147.1150 38° Northeast 521 600 35,000  Descending FlightAware
08:30AM -35.1462 147.1827 38° Northeast 523 602 35,200  Climbing Aus ATC (RADAR)
08:31AM -35.1380 147.1900 38° Northeast 520 598 35,000  Descending FlightAware
08:31AM -35.0794 147.2469 38° Northeast 522 601 35,200  Climbing Aus ATC (RADAR)
08:31AM -35.0820 147.2440 38° Northeast 519 597 35,000  Descending FlightAware
08:32AM -35.0225 147.3023 38° Northeast 523 602 35,200  Climbing Aus ATC (RADAR)
08:32AM -35.0050 147.3180 38° Northeast 518 596 35,000 -300 Descending FlightAware
08:32AM -34.9430 147.3780 38° Northeast 517 595 35,000 180 Level FlightAware
08:33AM -34.8801 147.4393 38° Northeast 520 598 35,200  Climbing Aus ATC (RADAR)
08:33AM -34.8610 147.4570 38° Northeast 516 594 35,000 -300 Descending FlightAware
08:34AM -34.7930 147.5220 38° Northeast 516 594 35,000  Level FlightAware
08:34AM -34.7340 147.5790 38° Northeast 516 594 35,000  Level FlightAware
08:35AM -34.6670 147.6430 38° Northeast 516 594 35,000  Level FlightAware
08:35AM -34.5940 147.7120 38° Northeast 515 593 35,000  Level FlightAware
08:36AM -34.5370 147.7680 39° Northeast 515 593 35,000  Level FlightAware
08:36AM -34.4700 147.8300 37° Northeast 515 593 35,000  Level FlightAware
08:37AM -34.3950 147.9020 38° Northeast 513 590 35,000  Level FlightAware
08:38AM -34.3270 147.9660 38° Northeast 513 590 35,000  Level FlightAware
08:38AM -34.2690 148.0210 38° Northeast 513 590 35,000  Level FlightAware
08:39AM -34.1940 148.0920 38° Northeast 512 589 35,000  Level FlightAware
08:39AM -34.1390 148.1440 38° Northeast 512 589 35,000  Level FlightAware
08:40AM -34.0630 148.2160 38° Northeast 511 588 35,000  Level FlightAware
08:41AM -33.9950 148.2790 38° Northeast 510 587 35,000  Level FlightAware
08:41AM -33.9400 148.3310 38° Northeast 509 586 35,000  Level FlightAware
08:42AM -33.8740 148.3920 38° Northeast 508 585 35,000  Level FlightAware
08:42AM -33.8070 148.4540 38° Northeast 513 590 35,000  Level FlightAware
08:43AM -33.7410 148.5150 38° Northeast 513 590 35,000  Level FlightAware
08:43AM -33.6680 148.5830 38° Northeast 513 590 35,000  Level FlightAware
08:44AM -33.5920 148.6530 38° Northeast 512 589 35,000  Level FlightAware
08:45AM -33.5250 148.7160 38° Northeast 511 588 35,000  Level FlightAware
08:45AM -33.4600 148.7760 38° Northeast 511 588 35,000  Level FlightAware
08:46AM -33.3870 148.8440 38° Northeast 509 586 35,000 120 Level FlightAware
08:46AM -33.3820 148.8483 38° Northeast 504 580 35,100  Climbing Aus ATC (RADAR)
08:47AM -33.3210 148.9040 38° Northeast 508 585 35,000  Descending FlightAware
08:47AM -33.3075 148.9169 38° Northeast 502 578 35,100 120 Climbing Aus ATC (RADAR)
08:47AM -33.2514 148.9681 38° Northeast 503 579 35,100 -240 Level Aus ATC (RADAR)
08:47AM -33.2470 148.9720 38° Northeast 506 582 35,000 -240 Descending FlightAware
08:48AM -33.1910 149.0240 38° Northeast 505 581 35,000  Level FlightAware
08:48AM -33.1260 149.0820 37° Northeast 503 579 35,000  Level FlightAware
08:49AM -33.0630 149.1390 37° Northeast 502 578 35,000  Level FlightAware
08:50AM -32.9940 149.2020 37° Northeast 495 570 35,000  Level FlightAware
08:50AM -32.9310 149.2600 38° Northeast 492 566 35,000  Level FlightAware
08:51AM -32.8670 149.3180 37° Northeast 491 565 35,000  Level FlightAware
08:51AM -32.8030 149.3760 37° Northeast 490 564 35,000  Level FlightAware
08:52AM -32.7380 149.4350 37° Northeast 489 563 35,000 120 Level FlightAware
08:52AM -32.7273 149.4439 37° Northeast 490 564 35,100 120 Climbing Aus ATC (RADAR)
08:52AM -32.6727 149.4933 37° Northeast 489 563 35,100 -240 Level Aus ATC (RADAR)
08:52AM -32.6750 149.4910 37° Northeast 488 562 35,000 -180 Descending FlightAware
08:53AM -32.6100 149.5500 37° Northeast 486 559 35,000  Level FlightAware
08:54AM -32.5470 149.6060 37° Northeast 485 558 35,000  Level FlightAware
08:54AM -32.4830 149.6600 35° Northeast 491 565 35,000  Level FlightAware
08:55AM -32.4160 149.7160 35° Northeast 494 568 35,000  Level FlightAware
08:55AM -32.3530 149.7680 35° Northeast 496 571 35,000  Level FlightAware
08:56AM -32.2850 149.8260 36° Northeast 493 567 35,000  Level FlightAware
08:56AM -32.2260 149.8850 40° Northeast 502 578 35,000  Level FlightAware
08:57AM -32.1690 149.9410 40° Northeast 502 578 35,000  Level FlightAware
08:58AM -32.0920 150.0180 40° Northeast 503 579 35,000  Level FlightAware
08:58AM -32.0370 150.0720 40° Northeast 503 579 35,000  Level FlightAware
08:59AM -31.9770 150.1310 40° Northeast 504 580 35,000  Level FlightAware
09:00AM -31.8950 150.2110 40° Northeast 506 582 35,000  Level FlightAware
09:00AM -31.8420 150.2630 40° Northeast 506 582 35,000  Level FlightAware
09:01AM -31.7780 150.3250 39° Northeast 506 582 35,000 60 Level FlightAware
09:01AM -31.7047 150.3962 39° Northeast 494 568 35,100  Climbing Aus ATC (RADAR)
09:01AM -31.7070 150.3940 39° Northeast 502 578 35,000 -240 Descending FlightAware
09:02AM -31.6530 150.4470 40° Northeast 502 578 35,000 60 Level FlightAware
09:02AM -31.5796 150.5175 40° Northeast 493 567 35,100  Climbing Aus ATC (RADAR)
09:03AM -31.5560 150.5410 40° Northeast 503 579 35,000 -180 Descending FlightAware
09:03AM -31.5020 150.5940 40° Northeast 504 580 35,000  Level FlightAware
09:04AM -31.4310 150.6630 40° Northeast 501 577 35,000  Level FlightAware
09:05AM -31.3600 150.7310 39° Northeast 488 562 35,000  Level FlightAware
09:05AM -31.2910 150.7980 40° Northeast 484 557 35,000 60 Level FlightAware
09:06AM -31.2336 150.8512 40° Northeast 479 551 35,100  Climbing Aus ATC (RADAR)
09:06AM -31.2300 150.8560 40° Northeast 484 557 35,000  Descending FlightAware
09:07AM -31.1289 150.9524 40° Northeast 479 551 35,100  Climbing Aus ATC (RADAR)
09:07AM -31.1230 150.9590 40° Northeast 484 557 35,000 -180 Descending FlightAware
09:07AM -31.0780 151.0030 40° Northeast 484 557 35,000  Level FlightAware
09:08AM -31.0240 151.0550 40° Northeast 484 557 35,000 120 Level FlightAware
09:08AM -30.9974 151.0778 40° Northeast 480 552 35,100  Climbing Aus ATC (RADAR)
09:09AM -30.9720 151.1070 41° Northeast 484 557 35,000 -120 Descending FlightAware
09:09AM -30.9190 151.1580 40° Northeast 484 557 35,000  Level FlightAware
09:10AM -30.8140 151.2530 38° Northeast 490 564 35,000  Level FlightAware
09:10AM -30.7440 151.3200 39° Northeast 490 564 35,000  Level FlightAware
09:11AM -30.7020 151.3590 39° Northeast 489 563 35,000  Level FlightAware
09:12AM -30.6010 151.4540 39° Northeast 491 565 35,000  Level FlightAware
09:12AM -30.5470 151.5050 39° Northeast 491 565 35,000  Level FlightAware
09:13AM -30.4900 151.5590 39° Northeast 491 565 35,000  Level FlightAware
09:14AM -30.4360 151.6100 39° Northeast 491 565 35,000  Level FlightAware
09:14AM -30.3450 151.6970 40° Northeast 492 566 35,000  Level FlightAware
09:15AM -30.2730 151.7640 39° Northeast 492 566 35,000  Level FlightAware
09:16AM -30.1874 151.8421 39° Northeast 482 555 35,000  Level Aus ATC (RADAR)
09:16AM -30.1990 151.8330 39° Northeast 495 570 35,000  Level FlightAware
09:16AM -30.1060 151.9180 38° Northeast 495 570 35,000  Level FlightAware
09:17AM -30.0390 151.9820 40° Northeast 495 570 35,000  Level FlightAware
09:18AM -29.9880 152.0300 39° Northeast 495 570 35,000  Level FlightAware
09:18AM -29.9020 152.1210 43° Northeast 501 577 35,000  Level FlightAware
09:19AM -29.8442 152.1772 43° Northeast 489 563 35,000  Level Aus ATC (RADAR)
09:19AM -29.8440 152.1780 43° Northeast 500 575 35,000  Level FlightAware
09:20AM -29.7790 152.2430 41° Northeast 497 572 35,000  Level FlightAware
09:20AM -29.7110 152.3100 41° Northeast 499 574 35,000  Level FlightAware
09:21AM -29.6480 152.3720 41° Northeast 498 573 35,000  Level FlightAware
09:21AM -29.5890 152.4310 41° Northeast 493 567 35,000  Level FlightAware
09:22AM -29.5330 152.4860 41° Northeast 488 562 35,000  Level FlightAware
09:23AM -29.4680 152.5490 40° Northeast 487 560 35,000  Level FlightAware
09:23AM -29.4100 152.6070 41° Northeast 491 565 35,000  Level FlightAware
09:24AM -29.3470 152.6680 40° Northeast 490 564 35,000  Level FlightAware
09:24AM -29.2890 152.7250 40° Northeast 488 562 35,000  Level FlightAware
09:24AM -29.2829 152.7299 40° Northeast 474 545 35,000  Level Aus ATC (RADAR)
09:25AM -29.2340 152.7790 41° Northeast 487 560 35,000  Level FlightAware
09:25AM -29.1716 152.8385 41° Northeast 470 541 35,000  Level Aus ATC (RADAR)
09:25AM -29.1680 152.8440 41° Northeast 483 556 35,000  Level FlightAware
09:26AM -29.1373 152.8733 40° Northeast 476 548 35,000  Level FlightAware ADS-B (NZNE)
09:26AM -29.0770 152.9321 40° Northeast 471 542 35,000  Level FlightAware ADS-B (NZNE)
09:27AM -29.0084 152.9988 40° Northeast 470 541 35,000  Level FlightAware ADS-B (NZNE)
09:28AM -28.9530 153.0519 40° Northeast 474 545 35,000  Level Aus ATC (RADAR)
09:28AM -28.9423 153.0628 40° Northeast 473 544 35,000  Level FlightAware ADS-B (NZNE)
09:28AM -28.8753 153.1276 40° Northeast 481 554 35,000  Level FlightAware ADS-B (NZNE)
09:29AM -28.8120 153.1890 40° Northeast 480 552 35,000  Level FlightAware
09:30AM -28.7540 153.2440 40° Northeast 479 551 35,000  Level FlightAware
09:30AM -28.6940 153.3030 41° Northeast 481 554 35,000  Level FlightAware
09:31AM -28.6340 153.3610 40° Northeast 481 554 35,000  Level FlightAware
09:31AM -28.5750 153.4170 40° Northeast 481 554 35,000  Level FlightAware
09:32AM -28.5150 153.4750 40° Northeast 481 554 35,000  Level FlightAware
09:32AM -28.5129 153.4776 40° Northeast 483 556 35,000  Level Aus ATC (RADAR)
09:32AM -28.4941 153.4945 39° Northeast 482 555 35,000  Level FlightAware ADS-B (NZNE)
09:33AM -28.3937 153.5903 39° Northeast 464 534 35,000  Level Aus ATC (RADAR)
09:33AM -28.4010 153.5840 39° Northeast 481 554 35,000  Level FlightAware
09:34AM -28.3360 153.6450 40° Northeast 482 555 35,000  Level FlightAware
09:34AM -28.2822 153.6988 40° Northeast 484 557 35,000  Level Aus ATC (RADAR)
09:34AM -28.2670 153.7110 40° Northeast 482 555 35,000  Level FlightAware
09:35AM -28.2160 153.7600 40° Northeast 482 555 35,000  Level FlightAware
09:35AM -28.1560 153.8170 40° Northeast 481 554 35,000  Level FlightAware
09:36AM -28.0880 153.8820 40° Northeast 481 554 35,000  Level FlightAware
09:37AM -28.0370 153.9300 40° Northeast 481 554 35,000  Level FlightAware
09:37AM -27.9700 153.9940 40° Northeast 481 554 35,000  Level FlightAware
09:38AM -27.9110 154.0490 39° Northeast 483 556 35,000  Level FlightAware
09:38AM -27.8588 154.0983 40° Northeast 486 559 35,000  Level FlightAware ADS-B (NZNE)
09:39AM -27.7790 154.1730 40° Northeast 486 559 35,000 -120 Level FlightAware
09:40AM -27.7258 154.2243 40° Northeast 484 557 34,900  Descending Aus ATC (RADAR)
09:40AM -27.7280 154.2210 40° Northeast 487 560 35,000 120 Climbing FlightAware
09:40AM -27.6600 154.2850 40° Northeast 487 560 35,000  Level FlightAware
09:41AM -27.6000 154.3410 40° Northeast 489 563 35,000  Level FlightAware
09:41AM -27.5300 154.4070 40° Northeast 490 564 35,000  Level FlightAware
09:42AM -27.4660 154.4670 40° Northeast 489 563 35,000  Level FlightAware
09:43AM -27.4070 154.5220 40° Northeast 485 558 35,000  Level FlightAware
09:43AM -27.3460 154.5790 40° Northeast 484 557 35,000  Level FlightAware
09:44AM -27.2837 154.6346 40° Northeast 464 534 35,000  Level Aus ATC (RADAR)
09:44AM -27.2870 154.6340 40° Northeast 483 556 35,000  Level FlightAware
09:44AM -27.2270 154.6890 39° Northeast 483 556 35,000  Level FlightAware
09:45AM -27.1660 154.7460 40° Northeast 483 556 35,000  Level FlightAware
09:46AM -27.1050 154.8030 40° Northeast 482 555 35,000  Level FlightAware
09:46AM -27.0230 154.8780 39° Northeast 481 554 35,000  Level FlightAware
09:47AM -26.9586 154.9404 39° Northeast 479 551 35,000  Level Aus ATC (RADAR)
09:47AM -26.9570 154.9390 39° Northeast 480 552 35,000  Level FlightAware
09:47AM -26.9100 154.9820 39° Northeast 481 554 35,000  Level FlightAware
09:48AM -26.8467 155.0427 39° Northeast 478 550 35,000  Level Aus ATC (RADAR)
09:48AM -26.8390 155.0470 39° Northeast 481 554 35,000  Level FlightAware
09:49AM -26.7940 155.0890 40° Northeast 277 319 35,000  Level FlightAware
09:49AM -26.7110 155.1660 40° Northeast 480 552 35,000  Level FlightAware
09:50AM -26.6319 155.2400 40° Northeast 479 551 35,000  Level Aus ATC (RADAR)
09:50AM -26.6310 155.2390 40° Northeast 480 552 35,000  Level FlightAware
09:51AM -26.5810 155.2850 39° Northeast 480 552 35,000  Level FlightAware
09:51AM -26.5111 155.3491 39° Northeast 477 549 35,000  Level Aus ATC (RADAR)
09:51AM -26.5130 155.3460 39° Northeast 478 550 35,000  Level FlightAware
09:52AM -26.4590 155.3960 40° Northeast 478 550 35,000  Level FlightAware
09:52AM -26.3930 155.4560 39° Northeast 479 551 35,000  Level FlightAware
09:53AM -26.3230 155.5190 39° Northeast 478 550 35,000  Level FlightAware
09:54AM -26.2520 155.5840 39° Northeast 478 550 35,000  Level FlightAware
09:54AM -26.1980 155.6330 39° Northeast 477 549 35,000  Level FlightAware
09:54AM -26.1779 155.6532 39° Northeast 474 545 35,000  Level Aus ATC (RADAR)
09:55AM -26.1250 155.6990 39° Northeast 478 550 35,000  Level FlightAware
09:56AM -26.0680 155.7500 39° Northeast 477 549 35,000  Level FlightAware
09:56AM -26.0160 155.7980 40° Northeast 477 549 35,000  Level FlightAware
09:57AM -25.9660 155.8420 38° Northeast 477 549 35,000  Level FlightAware
09:57AM -25.9120 155.8910 39° Northeast 477 549 35,000  Level FlightAware
09:58AM -25.8620 155.9360 39° Northeast 477 549 35,000  Level FlightAware
09:59AM -25.7420 156.0440 39° Northeast 479 551 35,000  Level FlightAware
09:59AM -25.7296 156.0540 39° Northeast 477 549 35,000  Level Aus ATC (RADAR)
09:59AM -25.6890 156.0920 39° Northeast 479 551 35,000  Level FlightAware
10:00AM -25.6426 156.1845 39° Northeast 477 549 35,000  Level Aus ATC (RADAR)
10:00AM -25.6350 156.1400 39° Northeast 479 551 35,000  Level FlightAware
10:01AM -25.5810 156.1890 39° Northeast 479 551 35,000  Level FlightAware
10:01AM -25.5270 156.2370 39° Northeast 479 551 35,000  Level FlightAware
10:02AM -25.4740 156.2850 39° Northeast 479 551 35,000  Level FlightAware
10:02AM -25.4200 156.3330 39° Northeast 479 551 35,000  Level FlightAware
10:03AM -25.3700 156.3780 39° Northeast 479 551 35,000  Level FlightAware
10:04AM -25.3180 156.4250 39° Northeast 479 551 35,000  Level FlightAware
10:04AM -25.3690 156.6590 104° East 35,000  Level FlightAware
10:04AM -25.3267 156.7310 104° East 479 551 35,000  Level Aus ATC (RADAR)
10:05AM -25.2458 156.8655 56° Northeast 478 550 35,000 -60 Level Aus ATC (RADAR)
10:06AM -25.2029 156.9877 69° East 650 748 34,900  Descending Aus ATC (RADAR)
10:08AM -25.0132 157.2589 52° Northeast 486 559 35,000  Climbing Aus ATC (RADAR)
10:11AM -24.8428 157.5434 57° Northeast 35,000  Level Aus ATC (Calculated)
10:13AM -24.7136 157.7581 57° Northeast  Level FlightAware Approximate
10:14AM -24.6410 157.8783 56° Northeast  Level FlightAware Approximate
10:14AM -24.6185 157.9156 56° Northeast 35,000  Level Aus ATC (Calculated)
10:15AM -24.4965 158.1166 56° Northeast 35,000  Level Aus ATC (Calculated)
10:16AM -24.4887 158.1295 56° Northeast  Level FlightAware Approximate
10:17AM -24.4091 158.2604 56° Northeast  Level FlightAware Approximate
10:18AM -24.3361 158.3800 56° Northeast  Level FlightAware Approximate
10:19AM -24.2630 158.4995 56° Northeast  Level FlightAware Approximate
10:20AM -24.1898 158.6189 56° Northeast  Level FlightAware Approximate
10:21AM -24.1165 158.7381 56° Northeast  Level FlightAware Approximate
10:22AM -24.0431 158.8572 56° Northeast  Level FlightAware Approximate
10:23AM -23.9697 158.9761 56° Northeast  Level FlightAware Approximate
10:24AM -23.8961 159.0950 56° Northeast  Level FlightAware Approximate
10:25AM -23.8225 159.2136 56° Northeast  Level FlightAware Approximate
10:26AM -23.7487 159.3322 56° Northeast  Level FlightAware Approximate
10:27AM -23.6749 159.4506 56° Northeast  Level FlightAware Approximate
10:27AM -23.6356 159.5128 98° East 35,000  Level Aus ATC (Calculated)
10:28AM -23.6536 159.6546 98° East  Level FlightAware Approximate
10:29AM -23.6356 159.5128 278° West  Level FlightAware Approximate
10:30AM -23.6544 159.6545 98° East  Level FlightAware Approximate
10:30AM -23.3618 159.9489 56° Northeast 35,000  Level Aus ATC (Calculated)
10:30AM -23.3313 159.9973 56° Northeast 35,000  Level Aus ATC (Calculated)
10:32AM -23.2400 160.1426 56° Northeast  Level Estimated
10:33AM -23.1655 160.2601 55° Northeast  Level FlightAware Approximate
10:34AM -23.0909 160.3775 55° Northeast  Level FlightAware Approximate
10:35AM -23.0163 160.4947 55° Northeast  Level FlightAware Approximate
10:36AM -22.9415 160.6117 55° Northeast  Level FlightAware Approximate
10:37AM -22.8667 160.7287 55° Northeast  Level FlightAware Approximate
10:38AM -22.7918 160.8455 55° Northeast  Level FlightAware Approximate
10:39AM -22.7168 160.9622 55° Northeast  Level FlightAware Approximate
10:39AM -22.6670 161.0389 55° Northeast 35,000  Level Aus ATC (Calculated)
10:40AM -22.5919 161.1554 55° Northeast  Level FlightAware Approximate
10:41AM -22.5167 161.2717 55° Northeast  Level FlightAware Approximate
10:41AM -22.5075 161.2859 55° Northeast 35,000  Level Aus ATC (Calculated)
10:42AM -22.4322 161.4022 55° Northeast  Level FlightAware Approximate
10:43AM -22.3568 161.5183 55° Northeast  Level FlightAware Approximate
10:44AM -22.2814 161.6342 55° Northeast  Level FlightAware Approximate
10:45AM -22.2059 161.7501 55° Northeast  Level FlightAware Approximate
10:46AM -22.1302 161.8658 55° Northeast  Level FlightAware Approximate
10:47AM -22.0545 161.9814 55° Northeast  Level FlightAware Approximate
10:48AM -21.9787 162.0969 55° Northeast  Level FlightAware Approximate
10:49AM -21.9029 162.2123 55° Northeast  Level FlightAware Approximate
10:50AM -21.8269 162.3275 55° Northeast  Level FlightAware Approximate
10:51AM -21.7509 162.4426 55° Northeast  Level FlightAware Approximate
10:51AM -21.6993 162.5206 55° Northeast 35,000  Level Aus ATC (Calculated)
10:52AM -21.6231 162.6355 55° Northeast  Level FlightAware Approximate
10:53AM -21.5469 162.7503 54° Northeast  Level FlightAware Approximate
10:53AM -21.5400 162.7606 54° Northeast 35,000  Level Aus ATC (Calculated)
10:55AM -21.3937 162.9802 54° Northeast  Level FlightAware Approximate
10:56AM -21.3172 163.0946 54° Northeast  Level FlightAware Approximate
10:57AM -21.3937 162.9802 234° Southwest  Level FlightAware Approximate
10:58AM -21.3172 163.0946 54° Northeast  Level FlightAware Approximate
10:59AM -21.3937 162.9802 234° Southwest  Level FlightAware Approximate
11:00AM -21.3172 163.0946 54° Northeast  Level FlightAware Approximate
11:01AM -21.3739 163.0097 54° Northeast  Level FlightAware Approximate
11:02AM -21.2967 163.1235 54° Northeast  Level FlightAware Approximate
11:03AM -21.2194 163.2372 54° Northeast  Level FlightAware Approximate
11:04AM -21.1420 163.3507 54° Northeast  Level FlightAware Approximate
11:05AM -21.0645 163.4642 54° Northeast  Level FlightAware Approximate
11:06AM -20.9870 163.5775 54° Northeast  Level FlightAware Approximate
11:07AM -20.9093 163.6907 54° Northeast  Level FlightAware Approximate
11:08AM -20.8317 163.8038 54° Northeast  Level FlightAware Approximate
11:09AM -20.7539 163.9168 54° Northeast  Level FlightAware Approximate
11:10AM -20.6761 164.0297 54° Northeast  Level FlightAware Approximate
11:11AM -20.5981 164.1424 54° Northeast  Level FlightAware Approximate
11:12AM -20.5201 164.2551 54° Northeast  Level FlightAware Approximate
11:13AM -20.4421 164.3676 53° Northeast  Level FlightAware Approximate
11:14AM -20.3640 164.4800 53° Northeast  Level FlightAware Approximate
11:15AM -20.2857 164.5923 53° Northeast  Level FlightAware Approximate
11:16AM -20.2075 164.7045 53° Northeast  Level FlightAware Approximate
11:17AM -20.1291 164.8165 53° Northeast  Level FlightAware Approximate
11:18AM -20.0507 164.9285 53° Northeast  Level FlightAware Approximate
11:19AM -19.9722 165.0403 53° Northeast  Level FlightAware Approximate
11:20AM -19.8936 165.1521 53° Northeast  Level FlightAware Approximate
11:21AM -19.8150 165.2637 53° Northeast  Level FlightAware Approximate
11:22AM -19.7363 165.3752 53° Northeast  Level FlightAware Approximate
11:23AM -19.6575 165.4866 53° Northeast  Level FlightAware Approximate
11:24AM -19.5787 165.5979 53° Northeast  Level FlightAware Approximate
11:25AM -19.4998 165.7091 53° Northeast  Level FlightAware Approximate
11:26AM -19.4208 165.8201 53° Northeast  Level FlightAware Approximate
11:27AM -19.3418 165.9311 53° Northeast  Level FlightAware Approximate
11:28AM -19.2627 166.0420 53° Northeast  Level FlightAware Approximate
11:29AM -19.1835 166.1527 53° Northeast  Level FlightAware Approximate
11:30AM -19.1043 166.2634 53° Northeast  Level FlightAware Approximate
11:31AM -19.0250 166.3739 53° Northeast  Level FlightAware Approximate
11:32AM -18.9456 166.4843 53° Northeast  Level FlightAware Approximate
11:33AM -18.8662 166.5947 53° Northeast  Level FlightAware Approximate
11:34AM -18.7867 166.7049 53° Northeast  Level FlightAware Approximate
11:35AM -18.7071 166.8150 53° Northeast  Level FlightAware Approximate
11:36AM -18.6275 166.9250 53° Northeast  Level FlightAware Approximate
11:37AM -18.5478 167.0349 53° Northeast  Level FlightAware Approximate
11:38AM -18.4680 167.1447 53° Northeast  Level FlightAware Approximate
11:39AM -18.3882 167.2545 53° Northeast  Level FlightAware Approximate
11:40AM -18.3083 167.3641 52° Northeast  Level FlightAware Approximate
11:41AM -18.2284 167.4736 52° Northeast  Level FlightAware Approximate
11:42AM -18.1483 167.5830 52° Northeast  Level FlightAware Approximate
11:43AM -18.0683 167.6923 52° Northeast  Level FlightAware Approximate
11:44AM -17.9881 167.8015 52° Northeast  Level FlightAware Approximate
11:45AM -17.9080 167.9106 52° Northeast  Level FlightAware Approximate
11:46AM -17.8277 168.0196 52° Northeast  Level FlightAware Approximate
11:47AM -17.7474 168.1285 52° Northeast  Level FlightAware Approximate
11:48AM -17.6670 168.2373 52° Northeast  Level FlightAware Approximate
11:49AM -17.6621 168.2439 54° Northeast  Level FlightAware Approximate
11:50AM -17.6993 168.3198 54° Northeast  Level Estimated
11:51AM -17.6993 168.3198 54° Northeast  Level Estimated
11:52AM -17.6993 168.3198 54° Northeast  Level Estimated
11:53AM -17.6993 168.3198 54° Northeast  Level Estimated
11:54AM -17.6993 168.3198 54° Northeast  Level Estimated
11:55AM -17.6993 168.3198 54° Northeast  Level Estimated
11:56AM -17.6993 168.3198 54° Northeast  Level Estimated
11:57AM -17.6993 168.3198 54° Northeast  Level Estimated
11:58AM -17.6993 168.3198 54° Northeast  Level Estimated
11:59AM -17.6993 168.3198 54° Northeast  Level Estimated
12:00PM -17.6993 168.3198 54° Northeast  Level Estimated
12:01PM -17.6993 168.3198 54° Northeast  Level Estimated
12:02PM -17.6993 168.3198 54° Northeast  Level Estimated